Flight Track Log - Related Links

Times and Time Zones

All times are in EDT time to prevent confusion due to time zone crossing. See the RPA3143 flight status page for this flight to view local times or setup timezone preferences in your user account.

Time Position Orientation Groundspeed Altitude Reporting Facility
EDT Latitude Longitude Course Direction KTS MPH feet Rate Location/Type
Sun 08:04:34 AM 38.8833 -77.0667 201° Southwest 162 186 1,700  Level Potomac TRACON
Sun 08:06:00 AM 38.6319 -77.2848 218° Southwest  Level FlightAware Approximate
Sun 08:06:25 AM 38.9697 -77.1614 320° Northwest 214 246 5,400  Level Washington Center
Sun 08:07:00 AM 38.5525 -77.3642 218° Southwest  Level FlightAware Approximate
Sun 08:07:22 AM 38.9772 -77.2339 278° West 235 270 7,800  Level Washington Center
Sun 08:08:00 AM 38.4795 -77.4526 225° Southwest  Level FlightAware Approximate
Sun 08:08:23 AM 38.8889 -77.2878 205° Southwest 186 214 10,700  Level Washington Center
Sun 08:09:00 AM 38.4059 -77.5387 201° Southwest  Level FlightAware Approximate
Sun 08:09:24 AM 38.8069 -77.3339 204° Southwest 261 300 13,200  Level Washington Center
Sun 08:10:23 AM 38.7250 -77.3825 205° Southwest 298 343 15,700 2,269 Climbing Washington Center
Sun 08:11:23 AM 38.6408 -77.4336 205° Southwest 322 371 17,700 1,934 Climbing Washington Center
Sun 08:12:24 AM 38.5728 -77.5169 224° Southwest 335 386 19,600 1,820 Climbing Washington Center
Sun 08:13:25 AM 38.4964 -77.5972 219° Southwest 350 403 21,400 1,714 Climbing Washington Center
Sun 08:14:23 AM 38.4178 -77.6772 219° Southwest 363 418 23,000 1,576 Climbing Washington Center
Sun 08:15:23 AM 38.3350 -77.7597 218° Southwest 369 425 24,500 1,450 Climbing Washington Center
Sun 08:16:23 AM 38.2544 -77.8419 219° Southwest 379 436 25,900 1,377 Climbing Washington Center
Sun 08:17:25 AM 38.1694 -77.9264 218° Southwest 379 436 27,300 1,200 Climbing Washington Center
Sun 08:18:23 AM 38.0822 -78.0133 218° Southwest 386 444 28,300 1,008 Climbing Washington Center
Sun 08:19:24 AM 38.0033 -78.0900 217° Southwest 394 453 29,300 1,180 Climbing Washington Center
Sun 08:20:25 AM 37.9075 -78.1894 219° Southwest 401 461 30,700 1,240 Climbing Washington Center
Sun 08:21:25 AM 37.8222 -78.2733 218° Southwest 401 461 31,800 661 Climbing Washington Center
Sun 08:22:23 AM 37.7325 -78.3647 219° Southwest 401 461 32,000 100 Climbing Washington Center
Sun 08:23:25 AM 37.6472 -78.4456 217° Southwest 409 471 32,000  Level Washington Center
Sun 08:24:23 AM 37.5531 -78.5361 217° Southwest 427 491 32,000  Level Washington Center
Sun 08:25:25 AM 37.4611 -78.6269 218° Southwest 427 491 32,000  Level Washington Center
Sun 08:26:22 AM 37.3669 -78.7197 218° Southwest 427 491 32,000  Level Washington Center
Sun 08:27:24 AM 37.2600 -78.8225 217° Southwest 427 491 32,000  Level Washington Center
Sun 08:28:24 AM 37.1658 -78.9122 217° Southwest 427 491 32,000  Level Washington Center
Sun 08:29:25 AM 37.0714 -79.0044 218° Southwest 427 491 32,000  Level Washington Center
Sun 08:30:23 AM 36.9747 -79.0964 217° Southwest 427 491 32,000  Level Washington Center
Sun 08:31:23 AM 36.8783 -79.1881 217° Southwest 427 491 32,000  Level Washington Center
Sun 08:32:24 AM 36.7922 -79.2697 217° Southwest 432 497 32,000  Level Washington Center
Sun 08:33:22 AM 36.6933 -79.3633 217° Southwest 438 504 32,000  Level Washington Center
Sun 08:34:24 AM 36.5986 -79.4547 218° Southwest 438 504 32,000  Level Washington Center
Sun 08:36:07 AM 36.4331 -79.6106 217° Southwest 441 507 32,000  Level Atlanta Center
Sun 08:37:07 AM 36.3361 -79.7011 217° Southwest 441 507 32,000  Level Atlanta Center
Sun 08:38:07 AM 36.2392 -79.7914 217° Southwest 446 513 32,000  Level Atlanta Center
Sun 08:39:07 AM 36.1319 -79.8894 216° Southwest 446 513 32,000  Level Atlanta Center
Sun 08:40:07 AM 36.0347 -79.9767 216° Southwest 446 513 32,000  Level Atlanta Center
Sun 08:41:07 AM 35.9219 -80.0361 203° Southwest 441 507 32,000  Level Atlanta Center
Sun 08:42:07 AM 35.8194 -80.0872 202° Southwest 446 513 32,000  Level Atlanta Center
Sun 08:43:07 AM 35.7064 -80.1439 202° Southwest 446 513 32,000  Level Atlanta Center
Sun 08:44:07 AM 35.5833 -80.2083 203° Southwest 454 522 32,000  Level Atlanta Center
Sun 08:45:07 AM 35.4706 -80.2672 203° Southwest 448 516 32,000  Level Atlanta Center
Sun 08:46:07 AM 35.3553 -80.3233 202° Southwest 448 516 32,000  Level Atlanta Center
Sun 08:47:07 AM 35.2422 -80.3794 202° Southwest 448 516 32,000  Level Atlanta Center
Sun 08:48:07 AM 35.1269 -80.4353 202° Southwest 448 516 32,000  Level Atlanta Center
Sun 08:49:07 AM 35.0264 -80.4853 202° Southwest 448 516 32,000  Level Atlanta Center
Sun 08:51:30 AM 34.7547 -80.6208 202° Southwest 431 496 32,000  Level Jacksonville Center
Sun 08:52:30 AM 34.6411 -80.6794 203° Southwest 431 496 32,000  Level Jacksonville Center
Sun 08:53:30 AM 34.5253 -80.7353 202° Southwest 449 517 32,000  Level Jacksonville Center
Sun 08:54:30 AM 34.4050 -80.7861 199° South 449 517 32,000  Level Jacksonville Center
Sun 08:55:30 AM 34.2864 -80.7992 185° South 436 502 32,000  Level Jacksonville Center
Sun 08:56:30 AM 34.1719 -80.8119 185° South 436 502 32,000  Level Jacksonville Center
Sun 08:57:30 AM 34.0489 -80.8197 183° South 431 496 32,000  Level Jacksonville Center
Sun 08:58:30 AM 33.9281 -80.8328 185° South 436 502 32,000  Level Jacksonville Center
Sun 08:59:31 AM 33.8053 -80.8481 186° South 441 507 32,000  Level Jacksonville Center
Sun 09:00:30 AM 33.6822 -80.8608 185° South 441 507 32,000  Level Jacksonville Center
Sun 09:01:30 AM 33.5614 -80.8736 185° South 441 507 32,000  Level Jacksonville Center
Sun 09:02:31 AM 33.4386 -80.8839 184° South 441 507 32,000  Level Jacksonville Center
Sun 09:03:30 AM 33.3156 -80.8967 185° South 441 507 32,000  Level Jacksonville Center
Sun 09:04:30 AM 33.1906 -80.9094 185° South 441 507 32,000  Level Jacksonville Center
Sun 09:05:30 AM 33.0675 -80.9219 185° South 441 507 32,000  Level Jacksonville Center
Sun 09:06:30 AM 32.9425 -80.9322 184° South 446 513 32,000  Level Jacksonville Center
Sun 09:07:30 AM 32.8217 -80.9447 185° South 446 513 32,000  Level Jacksonville Center
Sun 09:08:31 AM 32.6986 -80.9547 184° South 441 507 32,000  Level Jacksonville Center
Sun 09:09:30 AM 32.5567 -80.9603 182° South 464 534 32,000  Level Jacksonville Center
Sun 09:10:30 AM 32.4294 -80.9653 182° South 462 532 32,000  Level Jacksonville Center
Sun 09:11:30 AM 32.3064 -80.9728 183° South 464 534 32,000  Level Jacksonville Center
Sun 09:12:30 AM 32.1897 -80.9753 181° South 464 534 32,000  Level Jacksonville Center
Sun 09:13:30 AM 32.0456 -80.9808 182° South 464 534 32,000  Level Jacksonville Center
Sun 09:14:31 AM 31.9164 -80.9908 184° South 464 534 32,000  Level Jacksonville Center
Sun 09:15:30 AM 31.7994 -80.9956 182° South 470 541 32,000  Level Jacksonville Center
Sun 09:16:30 AM 31.6575 -81.0011 182° South 470 541 32,000  Level Jacksonville Center
Sun 09:17:30 AM 31.5283 -81.0086 183° South 470 541 32,000  Level Jacksonville Center
Sun 09:18:30 AM 31.4094 -81.0133 182° South 470 541 32,000  Level Jacksonville Center
Sun 09:19:30 AM 31.2758 -81.0208 183° South 478 550 32,000  Level Jacksonville Center
Sun 09:20:30 AM 31.1464 -81.0308 184° South 473 544 32,000  Level Jacksonville Center
Sun 09:21:30 AM 31.0172 -81.0358 182° South 478 550 32,000  Level Jacksonville Center
Sun 09:22:30 AM 30.8858 -81.0431 183° South 478 550 32,000  Level Jacksonville Center
Sun 09:23:30 AM 30.7542 -81.0458 181° South 478 550 32,000  Level Jacksonville Center
Sun 09:24:30 AM 30.6228 -81.0531 183° South 478 550 32,000  Level Jacksonville Center
Sun 09:25:30 AM 30.4933 -81.0581 182° South 473 544 32,000  Level Jacksonville Center
Sun 09:26:30 AM 30.3619 -81.0653 183° South 473 544 32,000 -650 Level Jacksonville Center
Sun 09:27:30 AM 30.2306 -81.0703 182° South 473 544 30,700 -1,750 Descending Jacksonville Center
Sun 09:28:30 AM 30.0992 -81.0775 183° South 473 544 28,500 -2,100 Descending Jacksonville Center
Sun 09:29:30 AM 29.9739 -81.0822 182° South 473 544 26,500 -2,033 Descending Jacksonville Center
Sun 09:30:31 AM 29.8531 -81.0894 183° South 455 524 24,400 -2,000 Descending Jacksonville Center
Sun 09:31:30 AM 29.7361 -81.0939 182° South 435 501 22,500 -1,916 Descending Jacksonville Center
Sun 09:32:30 AM 29.6214 -81.1008 183° South 423 487 20,600 -1,850 Descending Jacksonville Center
Sun 09:33:30 AM 29.5108 -81.1075 183° South 412 474 18,800 -1,750 Descending Jacksonville Center
Sun 09:34:30 AM 29.3919 -81.1144 183° South 397 457 17,100 -1,700 Descending Jacksonville Center
Sun 09:35:30 AM 29.2856 -81.1164 181° South 381 438 15,400 -1,686 Descending Jacksonville Center
Sun 09:36:31 AM 29.1872 -81.1039 174° South 376 433 13,700 -1,650 Descending Jacksonville Center
Sun 09:37:30 AM 29.0889 -81.0961 176° South 359 413 12,100 -850 Descending Jacksonville Center
Sun 09:38:31 AM 29.0033 -81.0906 177° South 323 372 12,000 -744 Descending Jacksonville Center
Sun 09:39:31 AM 28.9197 -81.0828 175° South 305 351 10,600 -1,613 Descending Jacksonville Center
Sun 09:40:30 AM 28.8383 -81.0747 175° South 305 351 8,800 -1,700 Descending Jacksonville Center
Sun 09:41:31 AM 28.7719 -81.1067 203° Southwest 278 320 7,200 -1,537 Descending Jacksonville Center
Sun 09:42:31 AM 28.7269 -81.1736 233° Southwest 253 291 5,700 -1,150 Descending Jacksonville Center
Sun 09:43:31 AM 28.6775 -81.2197 219° Southwest 253 291 4,900 -800 Descending Jacksonville Center
Sun 09:44:31 AM 28.6300 -81.2558 214° Southwest 234 269 4,100 -900 Descending Jacksonville Center
Sun 09:45:31 AM 28.5906 -81.2850 213° Southwest 205 236 3,100 -1,000 Descending Jacksonville Center

Login

Don't have an account? Register now (free) for customized features, flight alerts, and more!